Time,TemperatureF,DewpointF,PressureIn,WindDirection,WindDirectionDegrees,WindSpeedMPH,WindSpeedGustMPH,Humidity,HourlyPrecipIn,Conditions,Clouds,dailyrainin,SoftwareType,DateUTC
2013-08-29 09:11:00,76.0,67.0,29.93,NNW,327,0.0,1.0,73,0.00,,,0.00,,2013-08-29 14:11:00,
2013-08-29 09:22:00,76.0,67.0,29.93,NNW,327,0.0,1.0,73,0.00,,,0.00,,2013-08-29 14:22:00,
2013-08-29 09:52:00,82.0,69.0,29.93,North,0,0.0,0.0,64,0.00,,,0.00,,2013-08-29 14:52:00,
2013-08-29 10:02:00,82.0,69.0,29.93,North,0,0.0,0.0,64,0.00,,,0.00,,2013-08-29 15:02:00,
2013-08-29 10:12:00,82.0,69.0,29.93,North,0,0.0,0.0,64,0.00,,,0.00,,2013-08-29 15:12:00,
2013-08-29 10:21:00,81.0,69.0,29.93,NNW,327,0.0,1.0,66,0.00,,,0.00,,2013-08-29 15:21:00,
2013-08-29 10:43:00,79.0,68.0,29.93,South,178,2.0,7.0,68,0.00,,,0.00,,2013-08-29 15:43:00,
2013-08-29 10:53:00,78.0,67.0,29.93,SE,135,1.0,7.0,68,0.00,,,0.00,,2013-08-29 15:53:00,
2013-08-29 11:24:00,79.0,68.0,29.93,ESE,103,1.0,7.0,69,0.00,,,0.00,,2013-08-29 16:24:00,
2013-08-29 11:43:00,80.0,69.0,29.93,SE,125,1.0,5.0,69,0.00,,,0.00,,2013-08-29 16:43:00,
2013-08-29 11:54:00,80.0,69.0,29.93,SE,125,1.0,5.0,69,0.00,,,0.00,,2013-08-29 16:54:00,
2013-08-29 12:13:00,80.0,67.0,29.93,ESE,121,2.0,7.0,65,0.00,,,0.00,,2013-08-29 17:13:00,
2013-08-29 12:22:00,82.0,68.0,29.93,SE,144,0.0,7.0,63,0.00,,,0.00,,2013-08-29 17:22:00,
2013-08-29 12:34:00,82.0,68.0,29.93,SE,144,0.0,7.0,63,0.00,,,0.00,,2013-08-29 17:34:00,
2013-08-29 12:53:00,82.0,68.0,29.93,SE,132,1.0,6.0,62,0.00,,,0.00,,2013-08-29 17:53:00,
2013-08-29 13:21:00,82.0,68.0,29.91,SE,130,2.0,6.0,63,0.00,,,0.00,,2013-08-29 18:21:00,
2013-08-29 13:52:00,81.0,66.0,29.90,SE,135,2.0,8.0,61,0.00,,,0.00,,2013-08-29 18:52:00,
2013-08-29 14:11:00,81.0,67.0,29.90,SSE,157,2.0,10.0,62,0.00,,,0.00,,2013-08-29 19:11:00,
2013-08-29 14:22:00,81.0,67.0,29.90,SSE,157,2.0,10.0,62,0.00,,,0.00,,2013-08-29 19:22:00,
2013-08-29 14:32:00,81.0,67.0,29.90,SSE,157,2.0,10.0,62,0.00,,,0.00,,2013-08-29 19:32:00,
2013-08-29 14:53:00,80.0,67.0,29.89,SSE,156,2.0,10.0,65,0.00,,,0.00,,2013-08-29 19:53:00,
2013-08-29 15:02:00,80.0,67.0,29.89,SSE,156,2.0,10.0,65,0.00,,,0.00,,2013-08-29 20:02:00,
2013-08-29 15:13:00,80.0,67.0,29.89,SSE,156,2.0,10.0,65,0.00,,,0.00,,2013-08-29 20:13:00,
2013-08-29 15:22:00,81.0,68.0,29.88,South,182,2.0,7.0,64,0.00,,,0.00,,2013-08-29 20:22:00,
2013-08-29 15:52:00,80.0,67.0,29.88,SSE,159,2.0,8.0,65,0.00,,,0.00,,2013-08-29 20:52:00,
2013-08-29 16:01:00,80.0,67.0,29.88,SSE,159,2.0,8.0,65,0.00,,,0.00,,2013-08-29 21:01:00,
2013-08-29 16:12:00,80.0,67.0,29.88,SSE,159,2.0,8.0,65,0.00,,,0.00,,2013-08-29 21:12:00,
2013-08-29 16:22:00,80.0,67.0,29.88,SSE,159,2.0,8.0,65,0.00,,,0.00,,2013-08-29 21:22:00,
2013-08-29 16:44:00,80.0,67.0,29.85,SE,133,1.0,6.0,65,0.00,,,0.00,,2013-08-29 21:44:00,
2013-08-29 16:54:00,79.0,66.0,29.86,SSE,147,1.0,6.0,65,0.00,,,0.00,,2013-08-29 21:54:00,
2013-08-29 17:04:00,79.0,66.0,29.86,SSE,147,1.0,6.0,65,0.00,,,0.00,,2013-08-29 22:04:00,
2013-08-29 17:14:00,79.0,66.0,29.86,SSE,147,1.0,6.0,65,0.00,,,0.00,,2013-08-29 22:14:00,
2013-08-29 17:24:00,79.0,67.0,29.87,WSW,249,1.0,7.0,67,0.00,,,0.00,,2013-08-29 22:24:00,
2013-08-29 17:33:00,79.0,67.0,29.87,WSW,249,1.0,7.0,67,0.00,,,0.00,,2013-08-29 22:33:00,
2013-08-29 17:53:00,78.0,67.0,29.87,SSW,195,0.0,5.0,69,0.00,,,0.00,,2013-08-29 22:53:00,
2013-08-29 18:22:00,76.0,66.0,29.87,South,175,1.0,5.0,72,0.00,,,0.00,,2013-08-29 23:22:00,
2013-08-29 18:53:00,76.0,67.0,29.87,North,0,0.0,0.0,75,0.00,,,0.00,,2013-08-29 23:53:00,
2013-08-29 19:21:00,75.0,67.0,29.87,SSW,201,0.0,3.0,75,0.00,,,0.00,,2013-08-30 00:21:00,
2013-08-29 19:52:00,74.0,68.0,29.86,North,0,0.0,0.0,81,0.00,,,0.00,,2013-08-30 00:52:00,
2013-08-29 20:12:00,74.0,68.0,29.86,North,0,0.0,0.0,81,0.00,,,0.00,,2013-08-30 01:12:00,
2013-08-29 20:22:00,74.0,68.0,29.87,North,0,0.0,0.0,82,0.00,,,0.00,,2013-08-30 01:22:00,
2013-08-29 20:52:00,73.0,68.0,29.85,SE,133,0.0,6.0,84,0.00,,,0.00,,2013-08-30 01:52:00,
2013-08-29 21:11:00,73.0,68.0,29.84,SE,132,0.0,3.0,84,0.00,,,0.00,,2013-08-30 02:11:00,
2013-08-29 21:21:00,73.0,68.0,29.84,SE,132,0.0,3.0,84,0.00,,,0.00,,2013-08-30 02:21:00,
2013-08-29 21:32:00,73.0,68.0,29.84,SE,132,0.0,3.0,84,0.00,,,0.00,,2013-08-30 02:32:00,
2013-08-29 21:42:00,73.0,68.0,29.84,SE,132,0.0,3.0,84,0.00,,,0.00,,2013-08-30 02:42:00,